Date,TemperatureHighF,TemperatureAvgF,TemperatureLowF,DewpointHighF,DewpointAvgF,DewpointLowF,HumidityHigh,HumidityAvg,HumidityLow,PressureMaxIn,PressureMinIn,WindSpeedMaxMPH,WindSpeedAvgMPH,GustSpeedMaxMPH,PrecipitationSumIn
2012-1-1,57,40,30,40,26,14,100,62,27,30.05,29.60,8,1,8,0.08
2012-1-2,46,38,27,40,12,1,78,36,28,29.69,29.51,13,3,13,0.04
2012-1-3,31,25,16,3,-1,-8,33,32,30,29.93,29.69,13,4,13,0.00
2012-1-6,50,34,25,16,6,-1,33,30,26,29.90,29.72,4,0,4,0.00
2012-1-7,34,34,34,5,5,5,30,30,30,29.75,29.75,0,0,0,0.00
2012-1-8,34,34,34,5,5,5,30,30,30,29.75,29.75,0,0,0,0.00
2012-1-9,34,34,34,5,5,5,30,30,30,29.75,29.75,0,0,0,0.00
2012-1-10,34,34,34,5,5,5,30,30,30,29.75,29.75,0,0,0,0.00
2012-1-11,34,34,34,5,5,5,30,30,30,29.75,29.75,0,0,0,0.00
2012-1-12,34,34,34,5,5,5,30,30,30,29.75,29.75,0,0,0,0.00
2012-1-13,34,34,34,5,5,5,30,30,30,29.75,29.75,0,0,0,0.00
2012-1-14,34,34,34,5,5,5,30,30,30,29.75,29.75,0,0,0,0.00
2012-1-15,34,23,6,5,-3,-16,34,32,30,30.49,29.75,15,2,15,0.00
2012-1-16,36,18,5,15,-6,-18,53,34,30,30.55,30.08,9,2,9,0.00
2012-1-17,48,37,31,41,20,10,91,53,27,30.08,29.43,6,1,6,0.20
2012-1-18,47,32,16,46,9,-8,97,40,28,31.01,29.37,17,6,17,0.00
2012-1-19,39,20,8,9,-4,-14,46,33,28,30.28,29.96,8,1,8,0.00
2012-1-20,34,23,15,11,1,-8,56,39,30,30.25,29.90,15,2,15,0.00
2012-1-21,20,16,10,-3,-7,-12,39,34,32,30.34,30.14,6,0,4,0.00
2012-1-22,34,18,2,5,-6,-18,39,34,30,30.55,30.34,6,0,6,0.00
2012-1-23,39,32,24,33,10,0,77,41,29,30.49,29.84,4,0,4,0.28
2012-1-24,59,44,38,42,24,9,89,51,26,30.02,29.81,9,2,9,0.08
2012-1-25,46,36,32,13,7,4,33,30,28,30.17,30.02,13,3,13,0.00
2012-1-26,52,35,29,18,8,2,53,33,26,30.19,29.99,8,2,8,0.00
2012-1-27,43,39,34,42,32,10,96,79,31,29.99,29.22,15,2,15,1.22
2012-1-28,56,38,30,23,10,5,41,30,25,29.96,29.57,13,3,13,0.00
2012-1-29,46,35,25,14,6,-2,35,30,27,30.05,29.84,17,4,17,0.00
2012-1-30,40,30,21,12,3,-4,43,31,28,30.25,29.90,17,3,17,0.00
2012-1-31,45,31,21,17,8,-4,51,39,28,30.25,30.02,5,0,5,0.00
2012-2-1,54,40,31,25,16,9,54,41,26,30.02,29.75,10,2,10,0.00
2012-2-2,45,34,29,13,7,1,35,31,27,30.37,29.93,6,1,6,0.00
2012-2-3,41,29,21,9,2,-5,32,31,28,31.05,30.37,12,3,12,0.00
2012-2-4,39,30,24,10,3,-23,45,32,28,31.26,30.99,12,2,12,0.00
2012-2-5,40,25,14,9,-2,-10,34,32,29,31.26,31.26,6,1,6,0.00
2012-2-6,53,36,21,20,6,-4,32,29,26,31.26,31.26,10,2,10,0.00
2012-2-7,46,33,24,14,5,-1,39,31,27,31.26,31.26,15,2,15,0.00
2012-2-8,38,27,14,8,0,-10,34,31,29,31.26,31.26,6,1,6,0.00
2012-2-9,49,33,22,16,4,-3,32,30,26,31.26,31.26,9,2,9,0.00
2012-2-10,55,35,18,22,7,-4,44,31,26,31.26,31.26,8,1,8,0.00
2012-2-11,38,34,25,10,6,-2,33,30,29,31.26,31.26,13,1,13,0.00
2012-2-12,28,17,9,0,-7,-14,34,33,31,31.26,31.26,17,5,17,0.00
2012-2-13,42,26,9,11,0,-14,34,31,28,31.26,26.39,15,3,15,0.00
2012-2-14,46,30,16,14,4,-5,49,33,27,27.18,26.95,6,1,6,0.00
2012-2-15,44,34,28,14,8,1,51,33,28,26.95,26.95,4,0,4,0.00
2012-2-16,51,37,25,25,15,10,67,43,26,26.95,26.95,6,1,6,0.08
2012-2-17,57,42,27,36,20,1,77,46,26,26.95,26.95,10,2,10,0.32
2012-2-18,49,35,25,23,9,0,70,35,26,26.95,26.95,12,3,12,0.00
2012-2-19,49,32,24,24,7,-1,76,36,27,26.95,26.95,9,1,9,0.00
2012-2-20,43,29,20,12,2,-5,35,31,28,26.95,26.95,13,3,13,0.00
2012-2-21,45,32,18,14,6,-4,49,34,27,26.95,26.95,8,2,8,0.00
2012-2-22,58,42,31,23,16,9,55,36,26,26.95,26.95,12,2,12,0.00
2012-2-23,55,42,34,27,14,6,48,32,26,26.95,26.95,15,2,15,0.00
2012-2-24,42,36,30,38,15,2,84,44,29,26.95,26.95,10,1,10,0.83
2012-2-25,44,37,29,33,11,1,87,37,28,26.95,26.95,24,7,24,0.00
2012-2-26,42,29,21,10,2,-4,32,31,28,26.95,26.95,17,5,17,0.00
2012-2-27,50,34,16,16,6,-7,45,31,26,26.95,26.95,8,1,8,0.00
2012-2-28,47,37,27,15,8,0,35,29,27,26.95,26.95,17,4,17,0.00
2012-2-29,36,32,28,24,8,1,66,39,29,26.95,26.95,6,0,6,0.00
2012-3-1,36,30,22,31,18,3,87,64,44,26.95,26.95,3,0,0,0.04
2012-3-2,32,26,20,14,5,-2,52,41,30,26.95,26.95,0,0,0,0.00
2012-3-3,46,36,30,37,26,14,88,68,37,26.95,26.95,5,0,5,0.04
2012-3-4,42,33,27,31,11,1,90,41,28,26.95,26.95,8,1,8,0.04
2012-3-5,40,28,19,9,1,-6,36,31,28,26.95,26.95,17,4,17,0.00
2012-3-6,43,25,14,10,-1,-9,34,32,28,26.95,26.95,13,3,13,0.00
2012-3-7,64,40,21,28,11,-5,42,30,25,27.18,26.95,8,2,8,0.04
2012-3-8,74,55,36,34,24,9,63,31,23,26.95,26.95,13,5,13,0.00
2012-3-9,61,41,31,26,11,3,45,29,26,26.95,26.95,20,4,20,0.00
2012-3-10,40,32,25,17,7,0,52,35,29,26.95,26.95,8,1,8,0.08
2012-3-11,63,42,25,27,13,2,44,31,26,0.00,40.00,8,2,8,0.00
2012-3-12,79,52,32,37,19,6,40,28,22,26.95,26.95,8,1,8,0.00
2012-3-13,78,58,48,50,25,15,77,29,23,26.95,26.95,8,2,8,0.24
2012-3-14,58,46,39,52,32,20,83,60,38,26.95,26.95,10,2,10,0.04
2012-3-15,48,39,35,21,13,8,49,35,27,26.95,26.95,6,1,6,0.00
2012-3-16,46,40,35,35,18,10,81,42,27,26.95,26.95,8,1,8,0.08
2012-3-17,53,45,38,44,29,16,92,59,28,26.95,26.95,5,0,5,0.00
2012-3-18,84,55,36,41,30,19,88,46,21,26.95,26.95,6,1,6,0.00
2012-3-19,88,57,44,43,29,18,64,38,21,26.95,26.95,9,2,9,0.00
2012-3-20,87,60,41,42,30,19,57,35,21,26.95,26.95,6,1,6,0.00
2012-3-21,90,67,52,59,34,24,100,31,20,26.95,26.95,7,2,7,0.00
2012-3-22,90,68,56,53,37,27,83,36,20,26.95,26.95,8,2,8,0.00
2012-3-23,79,66,57,38,29,23,27,25,23,26.95,26.95,13,3,13,0.00
2012-3-24,58,51,46,24,18,13,29,27,26,26.95,26.95,8,1,8,0.00
2012-3-25,46,44,42,28,22,13,51,42,27,29.96,26.95,4,0,3,0.08
2012-3-26,48,39,30,35,14,2,69,37,27,29.99,29.63,20,5,20,0.00
2012-3-27,54,34,24,19,6,-2,34,30,25,30.19,29.99,17,5,17,0.00
2012-3-28,55,41,32,27,14,4,51,33,26,30.17,29.57,8,1,8,0.00
2012-3-29,46,42,37,25,15,8,52,35,27,29.93,29.55,12,2,12,0.04
2012-3-30,57,40,30,24,10,2,33,29,26,30.05,29.93,15,4,15,0.00
2012-3-31,57,40,30,24,10,6,44,30,26,30.08,29.90,7,1,7,0.00
2012-4-1,60,40,27,26,17,10,55,40,26,29.90,29.63,8,1,8,0.12
2012-4-2,59,44,34,30,18,6,66,37,26,29.81,29.60,15,4,15,0.08
2012-4-3,64,44,29,27,13,2,32,28,26,29.84,29.72,17,4,17,0.00
2012-4-4,67,50,34,30,17,6,31,27,25,29.75,29.46,15,4,15,0.00
2012-4-5,58,42,33,24,12,5,34,28,26,29.90,29.63,17,4,17,0.00
2012-4-6,58,41,28,23,11,1,35,29,26,29.99,29.90,15,3,15,0.00
2012-4-7,61,42,31,25,12,3,34,29,26,30.02,29.93,16,2,16,0.00
2012-4-8,51,43,36,17,12,8,34,28,26,29.99,29.63,13,2,13,0.00
2012-4-9,56,45,32,22,15,6,50,30,26,29.63,29.49,17,5,17,0.00
2012-4-10,64,49,38,28,17,9,34,28,26,29.78,29.60,15,3,15,0.00
2012-4-11,69,47,38,32,16,8,39,29,25,29.90,29.75,7,1,7,0.00
2012-4-12,58,45,39,34,23,14,76,43,26,30.11,29.87,9,1,9,0.16
2012-4-13,71,50,35,43,26,13,94,46,25,30.17,30.02,12,2,12,0.00
2012-4-14,76,55,35,35,22,9,41,28,23,30.17,29.96,8,2,8,0.00
2012-4-15,82,64,46,40,28,16,30,26,22,30.02,29.87,10,2,10,0.00
2012-4-16,96,75,61,55,40,28,74,31,19,30.02,29.87,9,2,9,0.00
2012-4-17,88,71,59,42,34,25,46,26,21,30.14,29.87,13,4,13,0.00
2012-4-18,70,54,43,32,21,13,30,27,25,30.28,30.14,10,2,10,0.00
2012-4-19,81,55,38,38,25,14,50,32,22,30.17,29.96,8,2,8,0.00
2012-4-20,87,63,44,43,29,19,48,29,21,30.02,29.87,12,3,12,0.00
2012-4-21,84,66,56,39,31,23,37,27,21,29.93,29.66,12,3,12,0.00
2012-4-22,61,51,44,39,33,27,79,52,34,29.87,29.69,10,2,10,0.79
2012-4-23,66,53,43,63,41,22,100,69,34,29.75,29.31,12,3,12,1.42
2012-4-24,64,51,44,28,20,13,45,30,25,29.72,29.40,12,4,12,0.00
2012-4-25,67,50,37,30,20,12,52,33,25,29.87,29.72,12,3,12,0.00
2012-4-26,73,50,34,36,21,8,45,32,24,29.96,29.57,10,2,10,0.00
2012-4-27,59,49,39,44,22,9,70,35,26,29.99,29.51,18,6,18,0.04
2012-4-28,64,46,35,27,15,6,32,28,26,30.14,29.99,17,5,17,0.00
2012-4-29,63,47,35,27,16,6,32,28,26,30.22,30.02,18,4,18,0.00
2012-4-30,69,50,30,32,17,2,31,28,25,30.34,30.19,8,2,8,0.00
2012-5-1,51,47,43,42,30,14,80,53,26,30.22,30.11,9,2,9,0.67
2012-5-2,53,49,47,45,31,20,84,54,28,30.25,30.17,6,1,6,0.00
2012-5-3,56,50,47,42,32,24,68,49,30,30.22,30.11,6,0,6,0.08
2012-5-4,58,55,52,50,46,37,86,72,52,30.11,29.96,5,0,5,0.04
2012-5-5,72,56,50,46,34,24,75,46,24,30.11,29.96,6,1,6,0.04
2012-5-6,71,55,43,39,27,15,62,36,24,30.17,30.08,8,2,8,0.00
2012-5-7,79,58,43,38,27,19,51,32,22,30.17,30.11,8,2,8,0.00
2012-5-8,58,53,48,52,33,20,81,48,28,30.11,29.90,6,0,4,0.39
2012-5-9,66,62,58,56,49,36,85,65,34,29.90,29.60,4,0,4,0.31
2012-5-10,67,58,47,57,37,18,83,51,25,29.69,29.40,12,3,12,0.71
2012-5-11,68,53,42,30,24,16,51,33,25,30.05,29.69,15,3,15,0.00
2012-5-12,84,61,38,40,29,20,62,33,21,30.17,30.05,13,2,13,0.00
2012-5-13,92,67,49,44,33,26,48,30,19,30.17,30.05,8,1,8,0.00
2012-5-14,72,60,55,40,32,25,51,35,24,30.22,30.14,7,1,7,0.04
2012-5-15,78,64,57,56,40,28,79,45,23,30.19,29.99,8,1,8,0.43
2012-5-16,73,67,63,60,50,38,83,59,29,29.99,29.81,6,0,6,0.00
2012-5-17,77,61,46,50,30,19,67,33,23,30.17,29.87,12,2,12,0.04
2012-5-18,83,58,41,39,28,19,51,33,22,30.28,30.17,8,1,8,0.00
2012-5-19,89,64,45,43,30,20,49,30,20,30.22,30.14,6,1,6,0.00
2012-5-20,93,67,50,44,32,21,48,30,19,30.31,30.19,8,1,8,0.00
2012-5-21,85,61,48,41,33,21,50,36,21,30.31,30.11,6,2,6,0.00
2012-5-22,67,63,59,58,49,41,80,62,50,30.11,29.87,6,0,6,0.55
2012-5-23,83,69,62,61,46,33,83,51,21,30.08,29.87,6,0,6,0.00
2012-5-24,88,68,58,46,39,31,55,37,20,30.28,30.08,9,2,9,0.00
2012-5-25,78,67,60,47,41,35,53,40,25,30.28,30.11,8,1,8,0.00
2012-5-26,90,74,61,58,42,28,65,35,20,30.14,30.05,7,1,7,0.00
2012-5-27,86,68,56,42,34,26,46,30,21,30.19,30.05,6,1,6,0.00
2012-5-28,86,68,58,41,33,28,39,28,21,30.05,29.96,6,2,6,0.00
2012-5-29,74,64,60,44,39,29,52,41,26,29.99,29.75,6,1,6,0.04
2012-5-30,77,68,61,62,45,33,76,47,23,29.78,29.72,4,0,0,0.00
2012-5-31,90,71,61,44,36,26,47,29,20,29.96,29.72,6,1,6,0.00
2012-6-1,83,64,56,39,28,23,35,26,21,30.11,29.96,7,2,7,0.00
2012-6-2,62,59,54,62,46,22,99,68,27,30.05,29.72,13,3,13,1.38
2012-6-3,62,59,53,62,44,27,99,63,29,29.72,29.69,8,1,8,0.04
2012-6-4,54,52,50,40,34,30,64,50,41,29.84,29.66,8,1,8,0.24
2012-6-5,59,54,50,47,36,26,81,55,29,29.99,29.81,7,0,7,0.04
2012-6-6,69,57,50,46,34,25,69,43,25,30.02,29.96,5,0,5,0.04
2012-6-7,80,58,50,42,37,28,58,46,22,30.02,29.96,6,0,6,0.16
2012-6-8,88,64,54,49,41,30,76,48,20,29.99,29.75,8,0,8,0.12
2012-6-9,84,67,54,46,35,26,60,33,21,29.96,29.81,6,1,6,0.00
2012-6-10,93,67,53,48,35,26,49,32,19,30.25,29.96,8,1,8,0.00
2012-6-11,85,65,54,41,33,26,49,32,21,30.31,30.22,7,1,7,0.00
2012-6-12,85,68,60,40,32,26,38,27,21,30.22,29.99,8,2,8,0.00
2012-6-13,68,66,63,61,55,38,81,70,38,30.11,29.93,5,0,5,0.83
2012-6-14,83,67,55,60,42,27,87,47,21,30.31,30.11,6,1,6,0.00
2012-6-15,86,64,51,43,33,26,53,34,21,30.37,30.28,8,1,8,0.00
2012-6-16,72,59,50,39,31,26,52,36,24,30.40,30.31,6,2,6,0.00
2012-6-17,77,59,48,40,31,23,59,37,23,30.34,30.17,7,1,7,0.00
2012-6-18,78,60,50,36,32,26,49,36,23,30.19,30.14,6,1,6,0.00
2012-6-19,76,65,52,45,36,28,58,36,23,30.19,30.05,8,1,8,0.00
2012-6-20,102,81,65,53,47,39,53,33,20,30.05,29.87,8,1,8,0.00
2012-6-21,103,84,72,53,46,40,44,28,19,29.90,29.75,7,1,7,0.00
2012-6-22,101,81,70,86,44,35,100,27,19,29.78,29.69,8,1,8,0.00
2012-6-23,96,73,64,48,41,32,46,32,19,29.93,29.78,8,1,8,0.00
2012-6-24,93,73,59,44,38,30,47,30,19,29.96,29.87,6,1,6,0.00
2012-6-25,76,68,64,58,40,30,70,37,23,29.87,29.66,6,0,6,0.71
2012-6-26,74,64,59,47,34,27,54,33,23,29.66,29.55,10,2,10,0.00
2012-6-27,76,66,59,35,32,28,36,28,23,29.75,29.57,9,3,9,0.00
2012-6-28,88,71,60,42,35,28,41,27,21,29.75,29.72,8,1,8,0.00
2012-6-29,93,73,60,56,42,31,66,36,19,29.75,29.55,7,1,7,0.39
2012-6-30,93,76,60,46,38,30,46,27,19,29.75,29.63,10,2,10,0.00
2012-7-1,99,78,65,52,41,33,46,28,19,29.84,29.72,10,2,10,0.00
2012-7-2,90,74,64,46,38,31,42,28,20,29.90,29.84,8,1,8,0.00
2012-7-3,95,73,62,45,37,31,40,27,19,29.96,29.87,9,1,9,0.00
2012-7-4,92,74,63,61,45,37,73,38,19,29.87,29.69,6,0,6,0.43
2012-7-5,92,75,66,62,46,34,82,42,19,29.87,29.69,8,1,8,0.00
2012-7-6,94,75,63,47,41,35,49,32,19,29.93,29.84,6,0,6,0.00
2012-7-7,82,75,68,49,44,37,46,34,24,29.84,29.75,6,1,6,0.00
2012-7-8,95,75,63,52,41,31,54,31,19,29.90,29.81,10,2,10,0.00
2012-7-9,90,70,57,43,34,26,38,26,20,30.02,29.90,8,1,8,0.00
2012-7-10,59,58,58,31,26,26,34,29,29,30.02,30.02,6,1,6,0.00
2012-7-11,58,58,58,26,26,26,29,29,29,30.22,30.02,6,1,6,0.00
2012-7-12,58,58,58,26,26,26,29,29,29,30.22,30.11,6,1,6,0.00
2012-7-13,58,58,58,26,26,26,29,29,29,30.19,30.14,9,1,9,0.00
2012-7-14,86,62,58,48,30,26,42,30,21,30.17,30.08,4,0,4,0.00
2012-7-15,100,79,66,52,44,38,48,31,19,30.11,29.90,6,0,6,0.00
2012-7-16,96,79,71,54,46,38,52,32,19,29.90,29.75,8,1,8,0.00
2012-7-17,97,82,69,54,46,38,54,30,19,29.81,29.63,9,2,9,0.00
2012-7-18,89,78,72,57,44,33,47,31,20,29.93,29.69,6,1,6,0.08
2012-7-19,90,73,64,44,35,28,39,25,20,30.05,29.93,6,1,6,0.00
2012-7-20,75,67,59,43,35,28,46,31,23,30.14,30.05,6,1,6,0.00
2012-7-21,92,68,54,46,36,26,56,33,19,30.14,30.08,6,1,6,0.00
2012-7-22,94,73,58,46,37,28,47,28,19,30.17,30.08,7,1,7,0.00
2012-7-23,91,76,65,49,40,33,47,29,20,30.11,29.78,7,1,7,0.00
2012-7-24,93,76,67,52,43,30,46,31,19,29.78,29.55,9,1,9,0.12
2012-7-25,86,71,61,41,33,26,29,24,21,29.84,29.72,9,2,9,0.00
2012-7-26,82,71,63,47,37,28,43,29,22,29.81,29.60,6,0,6,0.00
2012-7-27,73,69,67,58,49,41,68,48,39,29.93,29.63,0,0,0,0.12
2012-7-28,92,72,67,67,52,36,81,56,19,30.02,29.93,0,0,0,0.12
2012-7-29,77,68,61,65,50,33,91,58,23,30.11,29.96,8,1,8,0.04
2012-7-30,92,72,58,57,40,33,74,36,19,30.14,30.08,8,1,8,0.00
2012-7-31,89,70,62,62,42,33,81,38,20,30.14,29.93,8,1,8,0.04
2012-8-1,87,73,68,65,50,-4,88,49,21,29.96,29.87,6,1,6,0.47
2012-8-2,94,79,69,56,46,38,60,34,19,29.90,29.84,6,2,6,0.00
2012-8-3,85,85,85,43,43,43,23,23,23,29.84,29.84,4,4,4,0.00
2012-8-4,85,85,85,43,43,43,23,23,23,29.84,29.84,4,4,4,0.00
2012-8-5,85,84,74,66,46,43,73,29,23,29.84,29.84,6,3,6,0.04
2012-8-6,87,75,63,68,47,30,79,42,21,30.02,29.84,8,2,8,0.04
2012-8-7,90,71,59,45,39,32,49,33,20,30.05,29.96,6,1,6,0.00
2012-8-8,96,75,61,48,42,35,49,32,19,30.02,29.96,6,0,6,0.00
2012-8-9,98,78,67,52,44,37,48,32,19,29.99,29.90,6,1,6,0.00
2012-8-10,84,76,71,54,48,40,48,39,23,29.96,29.87,6,1,6,0.12
2012-8-11,74,74,74,54,54,54,48,48,48,29.90,29.90,0,0,0,0.00
2012-8-12,74,74,74,54,54,54,48,48,48,29.90,29.90,0,0,0,0.00
2012-8-13,74,74,74,54,54,54,48,48,48,29.90,29.90,0,0,0,0.00
2012-8-14,74,74,74,54,54,54,48,48,48,29.90,29.90,0,0,0,0.00
2012-8-15,74,74,74,54,54,54,48,48,48,29.90,29.90,0,0,0,0.00
2012-8-16,74,74,74,54,54,54,48,48,48,29.90,29.90,0,0,0,0.00
2012-8-17,74,74,74,54,54,54,48,48,48,29.90,29.90,0,0,0,0.00
2012-8-18,74,74,74,54,54,54,48,48,48,29.90,29.90,0,0,0,0.00
2012-8-19,74,74,74,54,54,54,48,48,48,29.90,29.90,0,0,0,0.00
2012-8-20,74,74,74,54,54,54,48,48,48,29.90,29.90,0,0,0,0.00
2012-8-21,74,74,74,54,54,54,48,48,48,29.90,29.90,0,0,0,0.00
2012-8-22,74,74,74,54,54,54,48,48,48,29.90,29.90,0,0,0,0.00
2012-8-23,74,74,66,54,52,38,48,46,32,30.14,29.90,0,0,0,0.00
2012-8-24,89,72,62,44,40,33,47,33,20,30.25,30.14,6,1,6,0.00
2012-8-25,84,71,62,47,40,30,46,33,21,30.37,30.25,6,1,6,0.00
2012-8-26,90,70,59,44,38,30,47,33,20,30.37,30.25,6,1,6,0.00
2012-8-27,91,72,59,46,39,33,47,32,20,30.25,29.93,6,1,6,0.00
2012-8-28,86,73,64,51,43,35,51,36,21,29.93,29.72,8,1,8,0.31
2012-8-29,82,64,55,39,32,24,44,30,22,29.99,29.90,6,1,6,0.00
2012-8-30,85,67,51,41,34,27,48,31,21,30.05,29.96,8,1,8,0.00
2012-8-31,93,73,57,44,36,27,46,27,19,29.99,29.81,8,1,8,0.00
2012-9-1,88,70,59,44,36,28,45,30,21,30.17,29.87,8,1,8,0.00
2012-9-2,77,65,58,42,36,29,47,35,23,30.19,30.11,6,1,6,0.00
2012-9-3,83,67,59,43,36,28,47,33,21,30.25,30.17,8,1,8,0.00
2012-9-4,69,66,62,62,47,33,79,52,33,30.19,29.90,4,0,4,0.35
2012-9-5,80,74,68,74,54,37,97,56,25,29.90,29.69,8,1,8,0.20
2012-9-6,80,71,66,47,42,35,47,36,22,29.93,29.87,4,0,4,0.00
2012-9-7,91,74,65,54,44,36,62,37,20,29.96,29.87,6,0,6,0.00
2012-9-8,92,75,64,52,44,38,49,35,20,29.93,29.63,13,3,13,0.20
2012-9-9,74,64,56,46,37,28,54,38,23,29.87,29.72,6,0,6,0.00
2012-9-10,68,59,50,38,29,20,49,33,25,30.08,29.87,9,2,9,0.00
2012-9-11,80,58,46,37,27,19,47,30,22,30.28,30.08,6,1,6,0.00
2012-9-12,87,62,47,42,32,26,50,35,21,30.37,30.28,6,0,6,0.00
2012-9-13,92,67,53,44,36,29,50,35,20,30.37,30.25,6,1,6,0.00
2012-9-14,92,69,57,44,38,32,50,34,19,30.28,30.08,8,1,8,0.00
2012-9-15,79,64,49,44,34,20,49,34,22,30.08,29.99,10,2,10,0.00
2012-9-16,76,56,45,36,27,16,49,34,23,30.11,29.99,8,1,8,0.00
2012-9-17,82,58,40,38,28,20,49,34,22,30.14,30.02,6,0,6,0.00
2012-9-18,74,64,53,46,37,31,48,37,25,30.08,29.69,15,3,15,0.00
2012-9-19,75,63,47,62,35,19,79,38,23,30.22,29.69,12,2,12,0.59
2012-9-20,76,53,44,35,25,18,48,34,23,30.31,30.19,6,1,6,0.00
2012-9-21,68,53,44,32,27,25,50,39,25,30.22,30.11,6,1,6,0.00
2012-9-25,67,60,58,30,26,24,27,27,25,30.17,30.14,4,0,0,0.00
2012-9-26,76,64,57,42,34,25,45,32,23,30.17,30.02,7,1,7,0.00
2012-9-27,74,60,46,44,32,20,57,36,24,30.28,30.02,8,1,8,0.00
2012-9-28,57,51,44,52,37,24,84,58,39,30.28,30.05,6,0,6,1.30
2012-9-29,57,55,53,52,42,31,88,63,39,30.05,29.90,6,0,6,0.04
2012-9-30,59,56,52,44,39,33,72,53,38,29.96,29.72,3,0,0,0.08
2012-10-1,62,56,50,46,33,24,80,44,26,29.96,29.69,10,1,10,0.04
2012-10-2,68,60,53,44,37,28,54,44,25,30.08,29.96,4,0,4,0.04
2012-10-3,66,63,61,56,52,44,81,67,54,30.19,30.08,4,0,0,0.12
2012-10-4,63,62,60,57,56,53,84,80,71,30.19,30.08,4,0,0,0.20
2012-10-5,82,64,58,58,45,30,87,55,22,30.08,29.93,5,0,5,0.00
2012-10-6,79,62,50,53,35,20,71,38,22,29.93,29.69,10,2,10,0.00
2012-10-7,57,50,43,32,24,19,52,37,27,30.11,29.93,6,0,6,0.16
2012-10-8,55,48,41,39,26,19,72,44,28,30.34,30.08,6,0,6,0.04
2012-10-9,57,51,45,30,27,23,50,40,27,30.34,30.17,6,0,6,0.00
2012-10-10,62,54,48,54,38,24,83,55,38,30.17,29.75,5,0,4,0.24
2012-10-11,60,49,40,49,21,14,81,34,26,30.14,29.81,10,2,10,0.00
2012-10-12,54,43,34,27,18,5,50,36,26,30.37,30.02,12,2,12,0.08
2012-10-13,57,40,29,24,11,3,35,29,26,30.49,30.34,6,1,6,0.00
2012-10-14,59,51,41,50,32,12,78,50,28,30.34,29.96,4,0,4,0.47
2012-10-15,75,64,54,57,42,32,88,50,23,29.96,29.63,8,1,8,0.08
2012-10-16,62,51,37,49,25,14,65,37,26,29.90,29.57,17,3,17,0.08
2012-10-17,64,45,34,28,20,14,53,39,26,30.02,29.90,6,0,6,0.00
2012-10-18,68,50,37,31,25,20,51,39,25,30.17,30.02,6,1,6,0.00
2012-10-19,67,59,47,63,43,28,89,59,25,30.14,29.75,10,2,10,0.28
2012-10-20,76,66,54,66,47,22,96,58,23,29.78,29.63,9,1,9,0.91
2012-10-21,63,54,42,28,23,17,49,31,26,29.90,29.75,13,2,13,0.00
2012-10-22,68,53,44,29,24,17,50,33,25,30.02,29.90,15,2,15,0.00
2012-10-23,65,51,44,29,22,16,43,33,25,30.14,30.02,6,1,6,0.00
2012-10-24,61,48,37,27,21,13,50,36,26,30.25,30.14,4,0,4,0.00
2012-10-25,65,49,38,29,24,18,50,39,25,30.34,30.25,6,1,6,0.00
2012-10-26,71,53,42,34,28,24,51,40,24,30.28,30.14,6,0,6,0.00
2012-10-27,68,54,44,38,29,26,51,40,25,30.17,30.05,6,1,6,0.00
2012-10-28,55,52,50,34,29,21,51,42,31,30.08,29.84,8,2,8,0.00
2012-10-29,60,56,51,52,44,34,82,64,47,29.84,29.40,17,6,17,0.55
2012-10-30,62,58,54,51,43,37,67,57,46,29.60,29.34,10,0,10,1.10
2012-10-31,60,54,47,56,33,19,87,48,27,29.60,29.49,7,0,7,0.04
2012-11-1,57,48,41,23,20,16,44,32,27,29.57,29.51,6,0,0,0.00
2012-11-4,40,37,35,9,8,6,30,29,28,29.96,29.55,8,0,8,0.00
2012-11-5,48,36,26,15,7,-1,33,29,26,30.14,29.96,10,1,10,0.00
2012-11-6,46,30,21,14,3,-4,37,31,27,30.25,30.14,6,0,6,0.00
2012-11-7,36,33,26,14,6,0,46,31,29,30.22,29.84,10,3,10,0.00
2012-11-8,40,37,32,24,19,10,53,48,31,29.84,29.69,13,2,13,0.63
2012-11-9,53,41,34,21,11,6,34,29,26,30.11,29.78,15,4,15,0.00
2012-11-10,58,39,30,24,12,3,51,32,26,30.49,30.11,13,1,13,0.00
2012-11-11,67,46,30,30,17,4,48,32,25,30.52,30.40,8,0,8,0.00
2012-11-12,74,54,40,38,28,23,54,37,23,30.46,30.25,8,2,8,0.00
2012-11-13,65,50,32,40,26,8,48,39,26,30.43,30.14,17,2,17,0.20
2012-11-14,55,37,28,22,9,1,45,31,25,30.58,30.43,8,1,8,0.00
2012-11-15,51,35,26,18,8,2,48,33,26,30.52,30.34,6,1,6,0.00
2012-11-16,52,35,28,19,11,4,51,38,26,30.46,30.31,5,0,5,0.00
2012-11-17,54,34,26,20,10,4,51,38,26,30.67,30.46,6,0,6,0.00
2012-11-18,58,34,25,25,10,1,57,39,25,30.75,30.64,6,1,6,0.00
2012-11-19,57,33,23,24,11,6,53,41,26,30.64,30.31,5,0,5,0.00
2012-11-20,59,35,25,25,11,4,79,39,25,30.31,30.17,6,0,6,0.00
2012-11-21,57,39,30,23,14,5,52,36,26,30.28,30.19,6,1,6,0.00
2012-11-22,64,41,31,28,17,11,53,39,26,30.28,30.17,6,0,6,0.00
2012-11-23,65,42,29,28,20,13,53,43,25,30.17,29.66,9,1,9,0.00
2012-11-24,48,40,31,29,13,-28,51,33,27,29.66,29.55,16,5,16,0.00
2012-11-25,38,33,27,10,4,0,33,30,29,29.84,29.66,13,4,13,0.00
2012-11-26,48,33,23,14,5,-2,35,30,27,30.25,29.84,14,2,14,0.00
2012-11-27,37,31,21,19,11,-1,52,44,29,30.34,30.25,4,0,4,0.00
2012-11-28,42,31,24,18,6,-1,52,34,28,30.25,30.14,6,1,6,0.00
2012-11-29,48,34,24,15,8,2,47,34,27,30.25,30.14,10,3,10,0.04
2012-11-30,38,30,26,9,2,-1,34,31,29,30.58,30.19,9,2,9,0.00
2012-12-1,28,26,24,8,2,-2,44,34,31,30.67,30.52,5,0,5,0.00
2012-12-2,48,37,27,39,20,8,75,50,43,30.52,30.02,6,0,6,0.08
2012-12-3,63,45,32,48,26,15,90,50,26,30.31,30.02,13,1,13,0.00
2012-12-4,57,43,31,40,30,18,88,61,41,30.34,29.96,6,0,6,0.00
2012-12-5,57,48,30,36,20,2,48,33,26,30.14,29.84,17,5,17,0.04
2012-12-6,47,30,20,13,2,-5,37,31,27,30.34,30.14,13,2,13,0.00
2012-12-7,43,32,20,23,10,-2,51,40,28,30.31,30.05,6,0,6,0.00
2012-12-8,42,41,39,34,25,22,74,54,49,30.05,29.87,4,0,0,0.24
2012-12-9,46,39,35,38,20,7,91,52,27,30.31,29.96,10,0,10,0.12
2012-12-10,51,47,38,46,40,21,85,79,50,30.19,29.49,6,0,6,0.28
2012-12-11,48,40,29,46,18,3,90,43,27,30.17,29.55,13,2,13,0.04
2012-12-12,44,28,23,13,6,1,52,39,28,30.43,30.17,6,0,6,0.00
2012-12-13,54,28,21,19,7,0,53,42,26,30.46,30.28,6,0,6,0.00
2012-12-14,53,31,21,19,8,1,53,39,26,30.28,30.05,10,1,10,0.00
2012-12-15,50,31,24,28,5,-2,100,33,26,30.34,30.17,6,1,6,0.00
2012-12-16,26,25,24,8,2,-2,48,37,31,30.34,30.14,6,2,6,0.00
2012-12-17,36,30,24,31,15,7,82,54,46,30.14,29.87,6,2,6,0.00
2012-12-18,50,44,36,48,40,31,100,88,76,29.87,29.40,6,1,6,0.91
2012-12-19,47,40,35,41,18,6,90,44,27,30.05,29.43,13,4,13,0.00
2012-12-20,40,34,27,20,10,6,53,37,28,30.22,30.05,4,0,4,0.00
2012-12-21,54,44,35,40,24,11,77,47,29,30.08,29.10,21,5,21,0.51
2012-12-22,38,33,27,14,7,0,44,33,29,29.63,29.22,20,4,20,0.00
2012-12-23,42,30,22,11,3,-3,39,31,28,29.84,29.63,15,3,15,0.00
2012-12-24,46,29,24,14,2,-2,37,31,27,30.08,29.84,10,2,10,0.00
2012-12-25,34,28,24,5,1,-2,36,31,30,30.22,29.99,8,1,8,0.00
2012-12-26,36,27,16,20,2,-8,56,34,29,30.31,29.96,6,2,6,0.00
2012-12-27,41,35,30,41,23,9,100,63,40,29.96,29.31,12,3,12,1.22
2012-12-28,39,29,24,9,2,-2,42,31,29,29.99,29.63,13,1,13,0.00
2012-12-29,32,28,23,16,8,1,54,45,30,29.99,29.46,4,0,4,0.00
2012-12-30,29,25,18,13,1,-6,51,36,30,29.96,29.46,17,5,17,0.00
2012-12-31,34,25,12,6,-2,-12,36,32,30,30.02,29.75,10,2,10,0.00
2013-1-1,39,29,15,8,2,-9,34,31,29,29.93,29.69,15,4,15,0.00